This is the latest recevied weather packets stored in our database for station/object SALT. If no packets are shown the sender has not sent any weather packets the latest 10 day(s).
| Time | Temp. | Humidity | Pressure | Rain* | Wind** | Luminosity | Snow |
|---|---|---|---|---|---|---|---|
| 1778228504 | 5.56° C | 51% | 1020.8 hPa | 0 mm | - | - | - |
| 1778227901 | 6.11° C | 49% | 1020.8 hPa | 0 mm | - | - | - |
| 1778227299 | 6.11° C | 47% | 1020.9 hPa | 0 mm | - | - | - |
| 1778226694 | 6.11° C | 48% | 1020.9 hPa | 0 mm | - | - | - |
| 1778226091 | 6.11° C | 48% | 1020.9 hPa | 0 mm | - | - | - |
| 1778225489 | 6.67° C | 47% | 1020.9 hPa | 0 mm | - | - | - |
| 1778224886 | 6.67° C | 46% | 1021.1 hPa | 0 mm | - | - | - |
| 1778224283 | 6.67° C | 48% | 1021.1 hPa | 0 mm | - | - | - |
| 1778223681 | 6.11° C | 51% | 1021.2 hPa | 0 mm | - | - | - |
| 1778223076 | 6.11° C | 52% | 1021.1 hPa | 0 mm | - | - | - |
| 1778222473 | 6.11° C | 50% | 1021.1 hPa | 0 mm | - | - | - |
| 1778221871 | 6.11° C | 51% | 1021.1 hPa | 0 mm | - | - | - |
| 1778221268 | 6.11° C | 48% | 1021.1 hPa | 0 mm | - | - | - |
| 1778220665 | 6.11° C | 51% | 1021.1 hPa | 0 mm | - | - | - |
| 1778220063 | 6.11° C | 53% | 1021 hPa | 0 mm | - | - | - |
| 1778219458 | 6.67° C | 50% | 1021.1 hPa | 0 mm | - | - | - |
| 1778218855 | 6.67° C | 51% | 1021 hPa | 0 mm | - | - | - |
| 1778218253 | 7.78° C | 45% | 1021 hPa | 0 mm | - | - | - |
| 1778217650 | 7.78° C | 45% | 1021 hPa | 0 mm | - | - | - |
| 1778217047 | 7.78° C | 45% | 1021 hPa | 0 mm | - | - | - |
| 1778216445 | 7.78° C | 45% | 1021.1 hPa | 0 mm | - | - | - |
| 1778215840 | 8.33° C | 43% | 1021 hPa | 0 mm | - | - | - |
| 1778215237 | 8.89° C | 42% | 1021 hPa | 0 mm | - | - | - |
| 1778214635 | 8.89° C | 41% | 1020.9 hPa | 0 mm | - | - | - |
| 1778214032 | 9.44° C | 40% | 1020.9 hPa | 0 mm | - | - | - |
* Rain latest 24 hours (hover to see other rain measurements)
** Current wind speed in m/s (hover to see current wind gust speed)